Aviation Digital Data Service (ADDS)

Output produced by METARs form (1553 UTC 24 August 2019)
found at http://www.aviationweather.gov/metar/data/
 
Forecast for: ELLX (LUXEMBOURG (AUT), LU)
Text: TAF ELLX 241100Z 2412/2518 04009KT CAVOK
Forecast period: 1200 UTC 24 August 2019 to 1800 UTC 25 August 2019
Forecast type: FROM: standard forecast or significant change
Winds: from the NE (40 degrees) at 10 MPH (9 knots; 4.6 m/s)
Visibility: 6 or more miles 10+ km)
Ceiling: unknown
Clouds: missing
Weather: NSW  (no significant weather)
Text: TEMPO 2412/2518 12005KT
Forecast period: 1200 UTC 24 August 2019 to 1800 UTC 25 August 2019
Forecast type: TEMPORARY: The following changes expected for less than half the time period
Winds: from the ESE (120 degrees) at 6 MPH (5 knots; 2.6 m/s)
Visibility: missing
Ceiling: unknown
Clouds: missing
Weather: no significant weather forecast for this period